sensor_id;sensor_type;location;lat;lon;timestamp;temperature;humidity
25568;DHT22;13455;51.480;7.594;2023-02-28T00:13:18;0.80;99.90
25568;DHT22;13455;51.480;7.594;2023-02-28T00:15:44;0.70;99.90
25568;DHT22;13455;51.480;7.594;2023-02-28T05:18:18;-1.00;99.90
25568;DHT22;13455;51.480;7.594;2023-02-28T05:20:43;-1.00;99.90
25568;DHT22;13455;51.480;7.594;2023-02-28T05:23:12;-1.10;99.90
25568;DHT22;13455;51.480;7.594;2023-02-28T05:25:38;-1.20;99.90
25568;DHT22;13455;51.480;7.594;2023-02-28T05:28:04;-1.20;99.90
25568;DHT22;13455;51.480;7.594;2023-02-28T05:30:30;-1.20;99.90
25568;DHT22;13455;51.480;7.594;2023-02-28T05:32:57;-1.30;99.90
25568;DHT22;13455;51.480;7.594;2023-02-28T05:35:23;-1.30;99.90
25568;DHT22;13455;51.480;7.594;2023-02-28T05:37:49;-1.30;99.90
25568;DHT22;13455;51.480;7.594;2023-02-28T05:40:15;-1.40;99.90
25568;DHT22;13455;51.480;7.594;2023-02-28T05:42:41;-1.40;99.90
25568;DHT22;13455;51.480;7.594;2023-02-28T05:45:08;-1.40;99.90
25568;DHT22;13455;51.480;7.594;2023-02-28T05:47:34;-1.50;99.90
25568;DHT22;13455;51.480;7.594;2023-02-28T05:50:00;-1.50;99.90
25568;DHT22;13455;51.480;7.594;2023-02-28T05:52:26;-1.50;99.90
25568;DHT22;13455;51.480;7.594;2023-02-28T05:54:52;-1.60;99.90
25568;DHT22;13455;51.480;7.594;2023-02-28T05:57:18;-1.60;99.90
25568;DHT22;13455;51.480;7.594;2023-02-28T05:59:43;-1.70;99.90
25568;DHT22;13455;51.480;7.594;2023-02-28T06:02:13;-1.70;99.90
25568;DHT22;13455;51.480;7.594;2023-02-28T06:04:39;-1.70;99.90
25568;DHT22;13455;51.480;7.594;2023-02-28T06:07:06;-1.80;99.90
25568;DHT22;13455;51.480;7.594;2023-02-28T06:09:32;-1.80;99.90
25568;DHT22;13455;51.480;7.594;2023-02-28T06:11:59;-1.80;99.90
25568;DHT22;13455;51.480;7.594;2023-02-28T06:14:25;-1.90;99.90
25568;DHT22;13455;51.480;7.594;2023-02-28T06:16:51;-1.90;99.90
25568;DHT22;13455;51.480;7.594;2023-02-28T06:55:59;-1.90;99.90
25568;DHT22;13455;51.480;7.594;2023-02-28T07:27:46;-1.80;99.90
25568;DHT22;13455;51.480;7.594;2023-02-28T07:30:13;-1.80;99.90
25568;DHT22;13455;51.480;7.594;2023-02-28T07:32:38;-1.70;99.90
25568;DHT22;13455;51.480;7.594;2023-02-28T07:37:30;-1.60;99.90
25568;DHT22;13455;51.480;7.594;2023-02-28T07:40:05;-1.50;99.90
25568;DHT22;13455;51.480;7.594;2023-02-28T07:42:34;-1.40;99.90
25568;DHT22;13455;51.480;7.594;2023-02-28T07:45:00;-1.30;99.90
25568;DHT22;13455;51.480;7.594;2023-02-28T07:47:26;-1.30;99.90
25568;DHT22;13455;51.480;7.594;2023-02-28T07:49:51;-1.10;99.90
25568;DHT22;13455;51.480;7.594;2023-02-28T07:52:17;0.00;99.90
25568;DHT22;13455;51.480;7.594;2023-02-28T07:54:42;-0.90;99.90
25568;DHT22;13455;51.480;7.594;2023-02-28T07:57:08;-0.80;99.90
25568;DHT22;13455;51.480;7.594;2023-02-28T07:59:34;-0.80;99.90
25568;DHT22;13455;51.480;7.594;2023-02-28T08:01:59;-0.70;99.90
25568;DHT22;13455;51.480;7.594;2023-02-28T08:04:27;-0.70;99.90
25568;DHT22;13455;51.480;7.594;2023-02-28T08:06:52;-0.70;99.90
25568;DHT22;13455;51.480;7.594;2023-02-28T08:09:19;-0.70;99.90
25568;DHT22;13455;51.480;7.594;2023-02-28T08:11:44;-0.40;99.90
25568;DHT22;13455;51.480;7.594;2023-02-28T08:19:02;-0.40;99.90
25568;DHT22;13455;51.480;7.594;2023-02-28T08:21:28;-0.30;99.90
25568;DHT22;13455;51.480;7.594;2023-02-28T08:23:53;-0.20;99.90
25568;DHT22;13455;51.480;7.594;2023-02-28T08:26:20;-0.10;99.90
25568;DHT22;13455;51.480;7.594;2023-02-28T08:28:46;-0.10;99.90
25568;DHT22;13455;51.480;7.594;2023-02-28T08:31:13;0.00;99.90
25568;DHT22;13455;51.480;7.594;2023-02-28T08:33:40;0.10;99.90
25568;DHT22;13455;51.480;7.594;2023-02-28T08:36:07;0.20;99.90
25568;DHT22;13455;51.480;7.594;2023-02-28T08:38:33;0.20;99.90
25568;DHT22;13455;51.480;7.594;2023-02-28T08:41:01;0.40;99.90
25568;DHT22;13455;51.480;7.594;2023-02-28T08:43:28;0.40;99.90
25568;DHT22;13455;51.480;7.594;2023-02-28T08:45:55;0.50;99.90
25568;DHT22;13455;51.480;7.594;2023-02-28T08:48:28;0.60;99.90
25568;DHT22;13455;51.480;7.594;2023-02-28T08:53:23;1.40;99.90
25568;DHT22;13455;51.480;7.594;2023-02-28T09:00:47;1.20;99.90
25568;DHT22;13455;51.480;7.594;2023-02-28T09:17:49;1.70;99.90
25568;DHT22;13455;51.480;7.594;2023-02-28T09:20:15;1.60;99.90
25568;DHT22;13455;51.480;7.594;2023-02-28T09:39:42;2.00;99.90
25568;DHT22;13455;51.480;7.594;2023-02-28T09:44:44;1.80;99.90
25568;DHT22;13455;51.480;7.594;2023-02-28T09:47:31;1.80;99.90
25568;DHT22;13455;51.480;7.594;2023-02-28T09:50:08;1.90;99.90
25568;DHT22;13455;51.480;7.594;2023-02-28T09:52:34;2.00;99.90
25568;DHT22;13455;51.480;7.594;2023-02-28T09:55:42;2.50;99.90
25568;DHT22;13455;51.480;7.594;2023-02-28T10:01:23;2.70;99.90
25568;DHT22;13455;51.480;7.594;2023-02-28T10:09:10;3.10;99.90
25568;DHT22;13455;51.480;7.594;2023-02-28T10:31:49;4.30;99.90
25568;DHT22;13455;51.480;7.594;2023-02-28T10:36:41;4.30;99.90
25568;DHT22;13455;51.480;7.594;2023-02-28T10:41:59;4.50;99.90
25568;DHT22;13455;51.480;7.594;2023-02-28T10:46:51;4.50;99.90
25568;DHT22;13455;51.480;7.594;2023-02-28T10:49:23;4.50;99.90
25568;DHT22;13455;51.480;7.594;2023-02-28T11:01:59;4.80;99.90
25568;DHT22;13455;51.480;7.594;2023-02-28T11:14:41;4.80;99.90
25568;DHT22;13455;51.480;7.594;2023-02-28T11:19:46;5.00;99.90
25568;DHT22;13455;51.480;7.594;2023-02-28T11:22:27;5.00;99.90
25568;DHT22;13455;51.480;7.594;2023-02-28T11:24:56;5.10;99.90
25568;DHT22;13455;51.480;7.594;2023-02-28T11:29:59;5.70;99.90
25568;DHT22;13455;51.480;7.594;2023-02-28T11:32:30;6.00;99.40
25568;DHT22;13455;51.480;7.594;2023-02-28T11:37:37;5.70;99.10
25568;DHT22;13455;51.480;7.594;2023-02-28T11:40:14;6.00;98.40
25568;DHT22;13455;51.480;7.594;2023-02-28T12:10:27;6.80;93.50
25568;DHT22;13455;51.480;7.594;2023-02-28T12:12:55;6.90;94.00
25568;DHT22;13455;51.480;7.594;2023-02-28T12:15:32;7.30;92.90
25568;DHT22;13455;51.480;7.594;2023-02-28T12:18:15;7.40;92.00
25568;DHT22;13455;51.480;7.594;2023-02-28T12:28:57;8.00;92.20
25568;DHT22;13455;51.480;7.594;2023-02-28T12:31:38;8.20;92.00
25568;DHT22;13455;51.480;7.594;2023-02-28T12:34:21;8.50;91.60
25568;DHT22;13455;51.480;7.594;2023-02-28T12:36:50;8.80;91.20
25568;DHT22;13455;51.480;7.594;2023-02-28T12:41:53;9.40;90.40
25568;DHT22;13455;51.480;7.594;2023-02-28T12:44:35;9.50;92.40
25568;DHT22;13455;51.480;7.594;2023-02-28T12:47:05;9.60;90.90
25568;DHT22;13455;51.480;7.594;2023-02-28T12:49:57;9.30;89.50
25568;DHT22;13455;51.480;7.594;2023-02-28T13:00:47;9.70;86.60
25568;DHT22;13455;51.480;7.594;2023-02-28T13:11:32;9.80;82.10
25568;DHT22;13455;51.480;7.594;2023-02-28T13:24:09;11.00;84.40
25568;DHT22;13455;51.480;7.594;2023-02-28T13:48:18;12.60;73.90
25568;DHT22;13455;51.480;7.594;2023-02-28T13:50:44;13.20;73.90
25568;DHT22;13455;51.480;7.594;2023-02-28T13:58:34;14.70;66.30
25568;DHT22;13455;51.480;7.594;2023-02-28T14:06:35;14.30;62.10
25568;DHT22;13455;51.480;7.594;2023-02-28T14:16:27;13.10;57.10
25568;DHT22;13455;51.480;7.594;2023-02-28T14:21:39;11.30;59.80
25568;DHT22;13455;51.480;7.594;2023-02-28T14:32:30;9.70;65.30
25568;DHT22;13455;51.480;7.594;2023-02-28T14:37:39;8.90;70.30
25568;DHT22;13455;51.480;7.594;2023-02-28T14:40:29;8.60;70.30
25568;DHT22;13455;51.480;7.594;2023-02-28T14:43:03;8.30;71.00
25568;DHT22;13455;51.480;7.594;2023-02-28T14:45:31;7.90;73.30
25568;DHT22;13455;51.480;7.594;2023-02-28T14:47:58;8.20;82.80
25568;DHT22;13455;51.480;7.594;2023-02-28T14:50:35;7.70;73.20
25568;DHT22;13455;51.480;7.594;2023-02-28T14:55:36;7.50;84.50
25568;DHT22;13455;51.480;7.594;2023-02-28T14:58:06;7.40;76.00
25568;DHT22;13455;51.480;7.594;2023-02-28T15:00:50;7.00;76.00
25568;DHT22;13455;51.480;7.594;2023-02-28T15:10:57;6.90;90.20
25568;DHT22;13455;51.480;7.594;2023-02-28T15:16:04;6.80;87.10
25568;DHT22;13455;51.480;7.594;2023-02-28T15:18:48;6.60;84.90
25568;DHT22;13455;51.480;7.594;2023-02-28T15:21:19;6.50;81.10
25568;DHT22;13455;51.480;7.594;2023-02-28T15:23:52;6.40;82.00
25568;DHT22;13455;51.480;7.594;2023-02-28T15:26:22;6.50;81.00
25568;DHT22;13455;51.480;7.594;2023-02-28T15:28:59;6.40;82.10
25568;DHT22;13455;51.480;7.594;2023-02-28T15:31:39;6.30;83.30
25568;DHT22;13455;51.480;7.594;2023-02-28T15:49:21;6.20;85.20
25568;DHT22;13455;51.480;7.594;2023-02-28T16:14:43;5.50;90.00
25568;DHT22;13455;51.480;7.594;2023-02-28T16:17:22;5.40;90.70
25568;DHT22;13455;51.480;7.594;2023-02-28T16:19:49;5.10;90.80
25568;DHT22;13455;51.480;7.594;2023-02-28T16:29:36;5.20;91.40
25568;DHT22;13455;51.480;7.594;2023-02-28T16:32:05;5.10;91.70
25568;DHT22;13455;51.480;7.594;2023-02-28T16:46:51;4.90;99.90
25568;DHT22;13455;51.480;7.594;2023-02-28T16:49:16;5.20;96.30
25568;DHT22;13455;51.480;7.594;2023-02-28T16:51:42;4.70;93.20
25568;DHT22;13455;51.480;7.594;2023-02-28T17:01:27;4.70;99.90
25568;DHT22;13455;51.480;7.594;2023-02-28T17:03:54;4.70;99.40
25568;DHT22;13455;51.480;7.594;2023-02-28T17:36:03;4.00;99.90
25568;DHT22;13455;51.480;7.594;2023-02-28T17:38:29;3.90;96.90
25568;DHT22;13455;51.480;7.594;2023-02-28T17:40:55;3.80;97.20
25568;DHT22;13455;51.480;7.594;2023-02-28T17:43:26;3.70;97.10
25568;DHT22;13455;51.480;7.594;2023-02-28T17:45:52;3.70;97.20
25568;DHT22;13455;51.480;7.594;2023-02-28T17:48:18;3.60;97.70
25568;DHT22;13455;51.480;7.594;2023-02-28T17:50:44;3.70;97.80
25568;DHT22;13455;51.480;7.594;2023-02-28T17:53:09;3.60;97.80
25568;DHT22;13455;51.480;7.594;2023-02-28T17:55:35;3.60;98.00
25568;DHT22;13455;51.480;7.594;2023-02-28T17:58:01;3.50;98.20
25568;DHT22;13455;51.480;7.594;2023-02-28T18:00:28;3.50;98.40
25568;DHT22;13455;51.480;7.594;2023-02-28T18:02:54;3.40;98.70
25568;DHT22;13455;51.480;7.594;2023-02-28T18:10:17;3.40;99.00
25568;DHT22;13455;51.480;7.594;2023-02-28T18:39:35;3.00;99.90
25568;DHT22;13455;51.480;7.594;2023-02-28T18:42:01;2.80;99.90
25568;DHT22;13455;51.480;7.594;2023-02-28T18:46:52;2.80;99.90
25568;DHT22;13455;51.480;7.594;2023-02-28T18:49:18;2.70;99.90
25568;DHT22;13455;51.480;7.594;2023-02-28T18:51:44;2.70;99.90
25568;DHT22;13455;51.480;7.594;2023-02-28T18:54:12;2.60;99.90
25568;DHT22;13455;51.480;7.594;2023-02-28T18:56:39;2.60;99.90
25568;DHT22;13455;51.480;7.594;2023-02-28T19:03:59;2.50;99.90
25568;DHT22;13455;51.480;7.594;2023-02-28T19:06:26;2.40;99.90
25568;DHT22;13455;51.480;7.594;2023-02-28T19:16:14;2.40;99.90
25568;DHT22;13455;51.480;7.594;2023-02-28T19:18:40;2.30;99.90
25568;DHT22;13455;51.480;7.594;2023-02-28T19:21:07;2.20;99.90
25568;DHT22;13455;51.480;7.594;2023-02-28T19:33:22;2.10;99.90
25568;DHT22;13455;51.480;7.594;2023-02-28T19:35:47;2.10;99.90
25568;DHT22;13455;51.480;7.594;2023-02-28T20:02:37;1.90;99.90
25568;DHT22;13455;51.480;7.594;2023-02-28T20:07:29;1.90;99.90
25568;DHT22;13455;51.480;7.594;2023-02-28T20:09:56;1.70;99.90
25568;DHT22;13455;51.480;7.594;2023-02-28T20:12:22;1.70;99.90
25568;DHT22;13455;51.480;7.594;2023-02-28T20:29:26;1.70;99.90
25568;DHT22;13455;51.480;7.594;2023-02-28T20:31:53;1.60;99.90
25568;DHT22;13455;51.480;7.594;2023-02-28T20:34:19;1.60;99.90
25568;DHT22;13455;51.480;7.594;2023-02-28T20:36:45;1.60;99.90
25568;DHT22;13455;51.480;7.594;2023-02-28T20:39:10;1.40;99.90
25568;DHT22;13455;51.480;7.594;2023-02-28T21:06:14;1.40;99.90
25568;DHT22;13455;51.480;7.594;2023-02-28T21:08:40;1.40;99.90
25568;DHT22;13455;51.480;7.594;2023-02-28T21:16:06;1.20;99.90
25568;DHT22;13455;51.480;7.594;2023-02-28T21:18:35;1.10;99.90
25568;DHT22;13455;51.480;7.594;2023-02-28T21:21:07;1.10;99.90
25568;DHT22;13455;51.480;7.594;2023-02-28T21:23:33;1.20;99.90
25568;DHT22;13455;51.480;7.594;2023-02-28T21:26:06;1.50;99.90
25568;DHT22;13455;51.480;7.594;2023-02-28T21:28:33;1.10;99.90
25568;DHT22;13455;51.480;7.594;2023-02-28T21:31:06;1.10;99.90
25568;DHT22;13455;51.480;7.594;2023-02-28T21:33:33;1.10;99.90
25568;DHT22;13455;51.480;7.594;2023-02-28T21:36:04;1.00;99.90
25568;DHT22;13455;51.480;7.594;2023-02-28T21:41:05;1.00;99.90
25568;DHT22;13455;51.480;7.594;2023-02-28T21:43:30;1.00;99.90
25568;DHT22;13455;51.480;7.594;2023-02-28T21:46:03;1.00;99.90
25568;DHT22;13455;51.480;7.594;2023-02-28T21:51:06;1.00;99.90
25568;DHT22;13455;51.480;7.594;2023-02-28T21:53:33;1.00;99.90
25568;DHT22;13455;51.480;7.594;2023-02-28T21:56:21;0.80;99.90
25568;DHT22;13455;51.480;7.594;2023-02-28T21:58:47;1.00;99.90
25568;DHT22;13455;51.480;7.594;2023-02-28T22:01:18;1.10;99.90
25568;DHT22;13455;51.480;7.594;2023-02-28T22:03:45;1.40;99.90
25568;DHT22;13455;51.480;7.594;2023-02-28T22:06:20;1.00;99.90
25568;DHT22;13455;51.480;7.594;2023-02-28T22:08:51;1.00;99.90
25568;DHT22;13455;51.480;7.594;2023-02-28T22:11:19;1.00;99.90
25568;DHT22;13455;51.480;7.594;2023-02-28T22:13:45;1.00;99.90
25568;DHT22;13455;51.480;7.594;2023-02-28T22:16:16;0.70;99.90
25568;DHT22;13455;51.480;7.594;2023-02-28T22:18:42;0.80;99.90
25568;DHT22;13455;51.480;7.594;2023-02-28T22:21:09;0.80;99.90
25568;DHT22;13455;51.480;7.594;2023-02-28T22:23:37;0.80;99.90
25568;DHT22;13455;51.480;7.594;2023-02-28T22:28:30;0.70;99.90
25568;DHT22;13455;51.480;7.594;2023-02-28T22:30:56;0.70;99.90
25568;DHT22;13455;51.480;7.594;2023-02-28T22:33:23;0.60;99.90
25568;DHT22;13455;51.480;7.594;2023-02-28T22:53:01;0.70;99.90
25568;DHT22;13455;51.480;7.594;2023-02-28T23:07:39;0.30;99.90
25568;DHT22;13455;51.480;7.594;2023-02-28T23:10:08;0.30;99.90
25568;DHT22;13455;51.480;7.594;2023-02-28T23:12:35;0.20;99.90
25568;DHT22;13455;51.480;7.594;2023-02-28T23:15:01;0.00;99.90
25568;DHT22;13455;51.480;7.594;2023-02-28T23:17:26;0.00;99.90
25568;DHT22;13455;51.480;7.594;2023-02-28T23:19:52;0.00;99.90
25568;DHT22;13455;51.480;7.594;2023-02-28T23:22:18;0.00;99.90
25568;DHT22;13455;51.480;7.594;2023-02-28T23:24:44;-0.10;99.90
25568;DHT22;13455;51.480;7.594;2023-02-28T23:27:09;-0.10;99.90
25568;DHT22;13455;51.480;7.594;2023-02-28T23:29:35;-0.10;99.90
25568;DHT22;13455;51.480;7.594;2023-02-28T23:32:01;-0.20;99.90
25568;DHT22;13455;51.480;7.594;2023-02-28T23:34:27;-0.20;99.90
25568;DHT22;13455;51.480;7.594;2023-02-28T23:36:57;-0.30;99.90
25568;DHT22;13455;51.480;7.594;2023-02-28T23:39:24;-0.30;99.90
25568;DHT22;13455;51.480;7.594;2023-02-28T23:41:51;-0.40;99.90
25568;DHT22;13455;51.480;7.594;2023-02-28T23:44:17;-0.30;99.90
25568;DHT22;13455;51.480;7.594;2023-02-28T23:46:45;-0.30;99.90
25568;DHT22;13455;51.480;7.594;2023-02-28T23:49:11;-0.40;99.90
25568;DHT22;13455;51.480;7.594;2023-02-28T23:51:37;-0.40;99.90
25568;DHT22;13455;51.480;7.594;2023-02-28T23:54:03;-0.40;99.90
25568;DHT22;13455;51.480;7.594;2023-02-28T23:56:30;-0.40;99.90
25568;DHT22;13455;51.480;7.594;2023-02-28T23:58:56;-0.50;99.90
